Flight Track Log - Related Links

Times and Time Zones

All times are in EDT time to prevent confusion due to time zone crossing. See the KAP927 flight status page for this flight to view local times or setup timezone preferences in your user account.

Time Position Orientation Groundspeed Altitude Reporting Facility
EDT Latitude Longitude Course Direction KTS MPH feet Rate Location/Type
Sat 09:04:51 AM 42.7489 -73.7747 92° East 109 125 900  Level Boston Center
Sat 09:06:11 AM 42.7475 -73.7181 92° East 111 128 1,600 557 Climbing Boston Center
Sat 09:07:11 AM 42.7481 -73.6756 89° East 114 131 2,200 595 Climbing Boston Center
Sat 09:08:12 AM 42.7486 -73.6275 89° East 121 139 2,800 569 Climbing Boston Center
Sat 09:09:07 AM 42.7531 -73.5881 81° East 121 139 3,300 493 Climbing Boston Center
Sat 09:10:26 AM 42.7578 -73.5203 85° East 136 157 3,900 446 Climbing Boston Center
Sat 09:11:08 AM 42.7644 -73.4836 76° East 139 160 4,200 470 Climbing Boston Center
Sat 09:12:21 AM 42.7714 -73.4244 81° East 137 158 4,800 448 Climbing Boston Center
Sat 09:13:22 AM 42.7781 -73.3736 80° East 136 157 5,200 327 Climbing Boston Center
Sat 09:14:48 AM 42.7639 -73.2942 104° East 154 177 5,600 329 Climbing Boston Center
Sat 09:15:48 AM 42.7561 -73.2347 100° East 154 177 6,000 350 Climbing Boston Center
Sat 09:16:48 AM 42.7461 -73.1781 103° East 154 177 6,300 400 Climbing Boston Center
Sat 09:17:48 AM 42.7381 -73.1186 100° East 154 177 6,800 350 Climbing Boston Center
Sat 09:18:48 AM 42.7281 -73.0647 104° East 154 177 7,000 150 Climbing Boston Center
Sat 09:19:48 AM 42.7158 -73.0025 105° East 154 177 7,100 50 Climbing Boston Center
Sat 09:20:48 AM 42.7056 -72.9458 104° East 159 183 7,100 -50 Level Boston Center
Sat 09:21:48 AM 42.6997 -72.8781 97° East 170 196 7,000  Descending Boston Center
Sat 09:22:48 AM 42.6853 -72.8072 105° East 170 196 7,100  Climbing Boston Center
Sat 09:23:48 AM 42.6708 -72.7394 106° East 176 203 7,000 -50 Descending Boston Center
Sat 09:24:48 AM 42.6586 -72.6717 104° East 181 208 7,000  Level Boston Center
Sat 09:25:48 AM 42.6461 -72.6067 105° East 181 208 7,000  Level Boston Center
Sat 09:26:48 AM 42.6339 -72.5389 104° East 181 208 7,000  Level Boston Center
Sat 09:27:48 AM 42.6214 -72.4711 104° East 181 208 7,000  Level Boston Center
Sat 09:28:48 AM 42.6108 -72.4092 103° East 181 208 7,000 50 Level Boston Center
Sat 09:29:48 AM 42.6006 -72.3442 102° East 176 203 7,100 50 Climbing Boston Center
Sat 09:30:48 AM 42.5878 -72.2850 106° East 165 190 7,100 -50 Level Boston Center
Sat 09:31:48 AM 42.5753 -72.2231 105° East 165 190 7,000 -50 Descending Boston Center
Sat 09:32:48 AM 42.5647 -72.1639 104° East 165 190 7,000  Level Boston Center
Sat 09:33:48 AM 42.5519 -72.1047 106° East 165 190 7,000  Level Boston Center
Sat 09:34:48 AM 42.5436 -72.0428 100° East 165 190 7,000  Level Boston Center
Sat 09:35:48 AM 42.5392 -71.9781 95° East 165 190 7,000  Level Boston Center
Sat 09:36:48 AM 42.5325 -71.9189 99° East 165 190 7,000  Level Boston Center
Sat 09:37:48 AM 42.5261 -71.8456 97° East 165 190 7,000  Level Boston Center
Sat 09:38:48 AM 42.5214 -71.7867 96° East 170 196 7,000  Level Boston Center
Sat 09:39:48 AM 42.5147 -71.7133 97° East 175 201 7,000  Level Boston Center
Sat 09:40:48 AM 42.5103 -71.6514 96° East 182 209 7,000  Level Boston Center
Sat 09:41:31 AM 42.5000 -71.6000 105° East 179 206 7,000  Level KA90
Sat 09:42:31 AM 42.5167 -71.5333 71° East 186 214 7,000 -50 Level KA90
Sat 09:43:32 AM 42.5333 -71.4667 71° East 187 215 6,900 -286 Descending KA90
Sat 09:44:37 AM 42.5500 -71.3833 75° East 206 237 6,400 -528 Descending KA90
Sat 09:45:37 AM 42.5667 -71.3000 75° East 211 243 5,800 -600 Descending KA90
Sat 09:46:37 AM 42.5833 -71.2333 71° East 212 244 5,200 -650 Descending KA90
Sat 09:47:37 AM 42.5833 -71.1500 90° East 198 228 4,500 -632 Descending KA90
Sat 09:48:31 AM 42.5833 -71.0833 90° East 198 228 4,000 -632 Descending KA90
Sat 09:49:31 AM 42.5667 -71.0167 109° East 200 230 3,300 -550 Descending KA90
Sat 09:50:31 AM 42.5333 -70.9500 124° Southeast 193 222 2,900 -500 Descending KA90
Sat 09:51:31 AM 42.5000 -70.9333 160° South 166 191 2,300 -600 Descending KA90
Sat 09:52:31 AM 42.4500 -70.9667 206° Southwest 164 189 1,700 -600 Descending KA90
Sat 09:53:31 AM 42.4167 -70.9833 200° South 166 191 1,100 -714 Descending KA90
Sat 09:54:37 AM 42.3833 -71.0000 200° South 129 148 200 -818 Descending KA90
Sat 09:56:00 AM 42.3630 -71.0064 270° West  Level Estimated
Sat 10:03:00 AM 42.3630 -71.0064 270° West  Level Estimated

Login

Don't have an account? Register now (free) for customized features, flight alerts, and more!